sensor_id;sensor_type;location;lat;lon;timestamp;pressure;altitude;pressure_sealevel;temperature;humidity
60583;BME280;46415;47.536;19.066;2022-08-21T00:00:37;99819.19;;;19.47;100.00
60583;BME280;46415;47.536;19.066;2022-08-21T00:03:45;99825.37;;;19.36;100.00
60583;BME280;46415;47.536;19.066;2022-08-21T00:06:52;99825.09;;;19.39;100.00
60583;BME280;46415;47.536;19.066;2022-08-21T00:09:55;99821.31;;;19.32;100.00
60583;BME280;46415;47.536;19.066;2022-08-21T00:12:59;99825.50;;;19.35;100.00
60583;BME280;46415;47.536;19.066;2022-08-21T00:16:03;99813.00;;;19.27;100.00
60583;BME280;46415;47.536;19.066;2022-08-21T00:19:07;99817.16;;;19.20;100.00
60583;BME280;46415;47.536;19.066;2022-08-21T00:22:10;99816.16;;;19.11;100.00
60583;BME280;46415;47.536;19.066;2022-08-21T00:25:14;99813.38;;;19.03;100.00
60583;BME280;46415;47.536;19.066;2022-08-21T00:28:17;99809.78;;;19.04;100.00
60583;BME280;46415;47.536;19.066;2022-08-21T00:31:20;99816.00;;;19.03;100.00
60583;BME280;46415;47.536;19.066;2022-08-21T00:34:23;99803.56;;;19.05;100.00
60583;BME280;46415;47.536;19.066;2022-08-21T00:37:25;99807.56;;;19.00;100.00
60583;BME280;46415;47.536;19.066;2022-08-21T00:43:42;99815.75;;;19.06;100.00
60583;BME280;46415;47.536;19.066;2022-08-21T00:46:45;99819.72;;;19.01;100.00
60583;BME280;46415;47.536;19.066;2022-08-21T00:49:49;99823.19;;;19.01;100.00
60583;BME280;46415;47.536;19.066;2022-08-21T00:52:52;99821.53;;;19.00;100.00
60583;BME280;46415;47.536;19.066;2022-08-21T00:55:55;99822.84;;;18.85;100.00
60583;BME280;46415;47.536;19.066;2022-08-21T00:58:58;99823.28;;;18.90;100.00
60583;BME280;46415;47.536;19.066;2022-08-21T01:02:04;99817.87;;;18.82;100.00
60583;BME280;46415;47.536;19.066;2022-08-21T01:05:07;99821.59;;;18.80;100.00
60583;BME280;46415;47.536;19.066;2022-08-21T01:08:11;99812.88;;;18.79;100.00
60583;BME280;46415;47.536;19.066;2022-08-21T01:11:17;99821.47;;;18.81;100.00
60583;BME280;46415;47.536;19.066;2022-08-21T01:14:20;99822.59;;;18.88;100.00
60583;BME280;46415;47.536;19.066;2022-08-21T01:17:23;99822.44;;;18.90;100.00
60583;BME280;46415;47.536;19.066;2022-08-21T01:20:26;99814.19;;;18.94;100.00
60583;BME280;46415;47.536;19.066;2022-08-21T01:23:36;99818.44;;;18.86;100.00
60583;BME280;46415;47.536;19.066;2022-08-21T01:26:41;99812.03;;;18.79;100.00
60583;BME280;46415;47.536;19.066;2022-08-21T01:32:55;99812.47;;;18.84;100.00
60583;BME280;46415;47.536;19.066;2022-08-21T01:35:58;99815.69;;;18.87;100.00
60583;BME280;46415;47.536;19.066;2022-08-21T01:39:03;99813.47;;;18.92;100.00
60583;BME280;46415;47.536;19.066;2022-08-21T01:42:06;99808.75;;;18.86;100.00
60583;BME280;46415;47.536;19.066;2022-08-21T01:45:10;99806.38;;;18.83;100.00
60583;BME280;46415;47.536;19.066;2022-08-21T01:48:13;99815.94;;;18.84;100.00
60583;BME280;46415;47.536;19.066;2022-08-21T01:51:15;99801.41;;;18.80;100.00
60583;BME280;46415;47.536;19.066;2022-08-21T01:54:18;99803.75;;;18.83;100.00
60583;BME280;46415;47.536;19.066;2022-08-21T01:57:21;99808.31;;;18.81;100.00
60583;BME280;46415;47.536;19.066;2022-08-21T02:00:27;99809.59;;;18.87;100.00
60583;BME280;46415;47.536;19.066;2022-08-21T02:03:30;99805.69;;;18.81;100.00
60583;BME280;46415;47.536;19.066;2022-08-21T02:06:38;99803.50;;;18.86;100.00
60583;BME280;46415;47.536;19.066;2022-08-21T02:09:41;99813.59;;;18.91;100.00
60583;BME280;46415;47.536;19.066;2022-08-21T02:12:45;99808.63;;;18.88;100.00
60583;BME280;46415;47.536;19.066;2022-08-21T02:15:48;99809.00;;;18.83;100.00
60583;BME280;46415;47.536;19.066;2022-08-21T02:18:51;99816.66;;;18.86;100.00
60583;BME280;46415;47.536;19.066;2022-08-21T02:21:53;99812.63;;;18.82;100.00
60583;BME280;46415;47.536;19.066;2022-08-21T02:24:56;99802.63;;;18.76;100.00
60583;BME280;46415;47.536;19.066;2022-08-21T02:28:03;99803.19;;;18.80;100.00
60583;BME280;46415;47.536;19.066;2022-08-21T02:31:07;99807.09;;;18.85;100.00
60583;BME280;46415;47.536;19.066;2022-08-21T02:34:09;99797.50;;;18.74;100.00
60583;BME280;46415;47.536;19.066;2022-08-21T02:37:12;99809.50;;;18.67;100.00
60583;BME280;46415;47.536;19.066;2022-08-21T02:40:17;99805.38;;;18.65;100.00
60583;BME280;46415;47.536;19.066;2022-08-21T02:43:22;99796.50;;;18.66;100.00
60583;BME280;46415;47.536;19.066;2022-08-21T02:46:25;99797.06;;;18.69;100.00
60583;BME280;46415;47.536;19.066;2022-08-21T02:49:28;99788.22;;;18.70;100.00
60583;BME280;46415;47.536;19.066;2022-08-21T02:52:30;99779.09;;;18.65;100.00
60583;BME280;46415;47.536;19.066;2022-08-21T02:55:34;99781.97;;;18.62;100.00
60583;BME280;46415;47.536;19.066;2022-08-21T02:58:47;99788.94;;;18.52;100.00
60583;BME280;46415;47.536;19.066;2022-08-21T03:01:51;99790.47;;;18.54;100.00
60583;BME280;46415;47.536;19.066;2022-08-21T03:04:54;99790.25;;;18.57;100.00
60583;BME280;46415;47.536;19.066;2022-08-21T03:07:57;99791.75;;;18.60;100.00
60583;BME280;46415;47.536;19.066;2022-08-21T03:11:00;99792.41;;;18.52;100.00
60583;BME280;46415;47.536;19.066;2022-08-21T03:14:03;99790.47;;;18.54;100.00
60583;BME280;46415;47.536;19.066;2022-08-21T03:17:07;99791.91;;;18.58;100.00
60583;BME280;46415;47.536;19.066;2022-08-21T03:20:10;99783.22;;;18.67;100.00
60583;BME280;46415;47.536;19.066;2022-08-21T03:23:13;99787.22;;;18.62;100.00
60583;BME280;46415;47.536;19.066;2022-08-21T03:26:20;99795.81;;;18.64;100.00
60583;BME280;46415;47.536;19.066;2022-08-21T03:29:24;99787.94;;;18.64;100.00
60583;BME280;46415;47.536;19.066;2022-08-21T03:32:27;99791.66;;;18.71;100.00
60583;BME280;46415;47.536;19.066;2022-08-21T03:35:29;99793.19;;;18.64;100.00
60583;BME280;46415;47.536;19.066;2022-08-21T03:38:34;99790.28;;;18.67;100.00
60583;BME280;46415;47.536;19.066;2022-08-21T03:41:38;99792.47;;;18.62;100.00
60583;BME280;46415;47.536;19.066;2022-08-21T03:44:41;99798.03;;;18.68;100.00
60583;BME280;46415;47.536;19.066;2022-08-21T03:48:00;99796.50;;;18.66;100.00
60583;BME280;46415;47.536;19.066;2022-08-21T03:51:04;99795.97;;;18.72;100.00
60583;BME280;46415;47.536;19.066;2022-08-21T03:54:06;99792.03;;;18.57;100.00
60583;BME280;46415;47.536;19.066;2022-08-21T03:57:09;99794.84;;;18.65;100.00
60583;BME280;46415;47.536;19.066;2022-08-21T04:00:14;99792.88;;;18.57;100.00
60583;BME280;46415;47.536;19.066;2022-08-21T04:03:18;99795.50;;;18.57;100.00
60583;BME280;46415;47.536;19.066;2022-08-21T04:06:20;99802.97;;;18.62;100.00
60583;BME280;46415;47.536;19.066;2022-08-21T04:09:24;99803.84;;;18.72;100.00
60583;BME280;46415;47.536;19.066;2022-08-21T04:12:27;99811.47;;;18.75;100.00
60583;BME280;46415;47.536;19.066;2022-08-21T04:15:30;99818.84;;;18.81;100.00
60583;BME280;46415;47.536;19.066;2022-08-21T04:18:33;99814.00;;;18.77;100.00
60583;BME280;46415;47.536;19.066;2022-08-21T04:21:36;99823.09;;;18.72;100.00
60583;BME280;46415;47.536;19.066;2022-08-21T04:24:40;99821.72;;;18.78;100.00
60583;BME280;46415;47.536;19.066;2022-08-21T04:27:42;99827.88;;;18.88;100.00
60583;BME280;46415;47.536;19.066;2022-08-21T04:30:45;99823.56;;;18.87;100.00
60583;BME280;46415;47.536;19.066;2022-08-21T04:33:48;99830.41;;;18.99;100.00
60583;BME280;46415;47.536;19.066;2022-08-21T04:36:51;99829.03;;;19.05;100.00
60583;BME280;46415;47.536;19.066;2022-08-21T04:39:54;99829.56;;;19.08;100.00
60583;BME280;46415;47.536;19.066;2022-08-21T04:43:05;99826.00;;;19.09;100.00
60583;BME280;46415;47.536;19.066;2022-08-21T04:46:08;99831.25;;;19.09;100.00
60583;BME280;46415;47.536;19.066;2022-08-21T04:49:14;99825.69;;;19.03;100.00
60583;BME280;46415;47.536;19.066;2022-08-21T04:52:21;99829.16;;;19.13;100.00
60583;BME280;46415;47.536;19.066;2022-08-21T04:55:25;99829.56;;;19.08;100.00
60583;BME280;46415;47.536;19.066;2022-08-21T04:58:30;99842.06;;;19.06;100.00
60583;BME280;46415;47.536;19.066;2022-08-21T05:01:35;99834.59;;;19.11;100.00
60583;BME280;46415;47.536;19.066;2022-08-21T05:04:51;99834.91;;;19.28;100.00
60583;BME280;46415;47.536;19.066;2022-08-21T05:07:57;99841.69;;;19.30;100.00
60583;BME280;46415;47.536;19.066;2022-08-21T05:11:02;99843.09;;;19.34;100.00
60583;BME280;46415;47.536;19.066;2022-08-21T05:14:05;99841.97;;;19.37;100.00
60583;BME280;46415;47.536;19.066;2022-08-21T05:17:09;99841.56;;;19.41;100.00
60583;BME280;46415;47.536;19.066;2022-08-21T05:20:13;99838.28;;;19.49;100.00
60583;BME280;46415;47.536;19.066;2022-08-21T05:23:16;99848.97;;;19.47;100.00
60583;BME280;46415;47.536;19.066;2022-08-21T05:26:19;99852.94;;;19.42;100.00
60583;BME280;46415;47.536;19.066;2022-08-21T05:29:22;99851.72;;;19.46;100.00
60583;BME280;46415;47.536;19.066;2022-08-21T05:32:24;99847.16;;;19.48;100.00
60583;BME280;46415;47.536;19.066;2022-08-21T05:35:29;99841.97;;;19.37;100.00
60583;BME280;46415;47.536;19.066;2022-08-21T05:38:32;99839.41;;;19.46;100.00
60583;BME280;46415;47.536;19.066;2022-08-21T05:41:35;99852.12;;;19.51;100.00
60583;BME280;46415;47.536;19.066;2022-08-21T05:44:37;99852.44;;;19.58;100.00
60583;BME280;46415;47.536;19.066;2022-08-21T05:47:40;99840.22;;;19.56;100.00
60583;BME280;46415;47.536;19.066;2022-08-21T05:50:43;99848.25;;;19.55;100.00
60583;BME280;46415;47.536;19.066;2022-08-21T05:53:47;99838.28;;;19.49;100.00
60583;BME280;46415;47.536;19.066;2022-08-21T05:56:49;99847.44;;;19.64;100.00
60583;BME280;46415;47.536;19.066;2022-08-21T05:59:52;99843.56;;;19.68;100.00
60583;BME280;46415;47.536;19.066;2022-08-21T06:02:55;99844.66;;;19.56;100.00
60583;BME280;46415;47.536;19.066;2022-08-21T06:05:58;99849.25;;;19.64;100.00
60583;BME280;46415;47.536;19.066;2022-08-21T06:09:01;99851.22;;;19.71;100.00
60583;BME280;46415;47.536;19.066;2022-08-21T06:12:05;99853.12;;;19.69;100.00
60583;BME280;46415;47.536;19.066;2022-08-21T06:15:08;99849.53;;;19.70;100.00
60583;BME280;46415;47.536;19.066;2022-08-21T06:18:11;99843.44;;;19.79;100.00
60583;BME280;46415;47.536;19.066;2022-08-21T06:21:14;99839.13;;;19.78;100.00
60583;BME280;46415;47.536;19.066;2022-08-21T06:24:17;99842.31;;;19.91;100.00
60583;BME280;46415;47.536;19.066;2022-08-21T06:27:19;99846.34;;;19.95;100.00
60583;BME280;46415;47.536;19.066;2022-08-21T06:30:28;99845.91;;;20.10;100.00
60583;BME280;46415;47.536;19.066;2022-08-21T06:33:30;99849.09;;;20.23;100.00
60583;BME280;46415;47.536;19.066;2022-08-21T06:36:34;99850.63;;;20.25;100.00
60583;BME280;46415;47.536;19.066;2022-08-21T06:39:37;99854.94;;;20.36;100.00
60583;BME280;46415;47.536;19.066;2022-08-21T06:42:46;99858.09;;;20.30;100.00
60583;BME280;46415;47.536;19.066;2022-08-21T06:45:50;99867.41;;;20.34;100.00
60583;BME280;46415;47.536;19.066;2022-08-21T06:48:54;99862.94;;;20.44;99.51
60583;BME280;46415;47.536;19.066;2022-08-21T06:51:56;99863.59;;;20.65;97.71
60583;BME280;46415;47.536;19.066;2022-08-21T06:54:59;99872.56;;;20.82;97.44
60583;BME280;46415;47.536;19.066;2022-08-21T06:58:03;99870.50;;;21.03;95.54
60583;BME280;46415;47.536;19.066;2022-08-21T07:01:06;99871.78;;;21.09;94.87
60583;BME280;46415;47.536;19.066;2022-08-21T07:04:09;99868.75;;;20.94;95.27
60583;BME280;46415;47.536;19.066;2022-08-21T07:07:12;99863.63;;;20.93;95.31
60583;BME280;46415;47.536;19.066;2022-08-21T07:10:15;99866.31;;;21.20;95.47
60583;BME280;46415;47.536;19.066;2022-08-21T07:13:24;99866.16;;;21.22;93.98
60583;BME280;46415;47.536;19.066;2022-08-21T07:16:27;99863.97;;;21.44;92.52
60583;BME280;46415;47.536;19.066;2022-08-21T07:19:30;99861.69;;;21.49;92.43
60583;BME280;46415;47.536;19.066;2022-08-21T07:22:33;99865.19;;;21.68;92.17
60583;BME280;46415;47.536;19.066;2022-08-21T07:25:38;99862.94;;;21.73;91.29
60583;BME280;46415;47.536;19.066;2022-08-21T07:28:40;99866.09;;;21.76;90.13
60583;BME280;46415;47.536;19.066;2022-08-21T07:31:43;99870.47;;;21.85;90.07
60583;BME280;46415;47.536;19.066;2022-08-21T07:34:46;99868.34;;;21.89;88.68
60583;BME280;46415;47.536;19.066;2022-08-21T07:37:49;99871.09;;;21.97;88.83
60583;BME280;46415;47.536;19.066;2022-08-21T07:40:54;99864.59;;;22.09;88.27
60583;BME280;46415;47.536;19.066;2022-08-21T07:43:59;99866.81;;;21.96;89.33
60583;BME280;46415;47.536;19.066;2022-08-21T07:47:01;99866.09;;;21.94;88.89
60583;BME280;46415;47.536;19.066;2022-08-21T07:50:06;99857.25;;;22.21;87.86
60583;BME280;46415;47.536;19.066;2022-08-21T07:53:08;99854.63;;;22.21;87.53
60583;BME280;46415;47.536;19.066;2022-08-21T07:56:11;99860.75;;;22.47;86.89
60583;BME280;46415;47.536;19.066;2022-08-21T07:59:14;99847.25;;;22.76;85.80
60583;BME280;46415;47.536;19.066;2022-08-21T08:02:25;99848.75;;;23.20;83.92
60583;BME280;46415;47.536;19.066;2022-08-21T08:05:29;99850.22;;;23.65;81.61
60583;BME280;46415;47.536;19.066;2022-08-21T08:08:33;99844.94;;;23.81;79.04
60583;BME280;46415;47.536;19.066;2022-08-21T08:11:37;99843.59;;;24.10;77.93
60583;BME280;46415;47.536;19.066;2022-08-21T08:14:41;99842.78;;;24.42;76.59
60583;BME280;46415;47.536;19.066;2022-08-21T08:17:43;99841.16;;;24.24;75.99
60583;BME280;46415;47.536;19.066;2022-08-21T08:20:46;99828.34;;;23.95;77.47
60583;BME280;46415;47.536;19.066;2022-08-21T08:23:49;99818.13;;;23.26;80.23
60583;BME280;46415;47.536;19.066;2022-08-21T08:26:51;99821.88;;;22.99;81.70
60583;BME280;46415;47.536;19.066;2022-08-21T08:29:56;99818.66;;;23.30;80.91
60583;BME280;46415;47.536;19.066;2022-08-21T08:32:59;99820.56;;;23.03;81.62
60583;BME280;46415;47.536;19.066;2022-08-21T08:36:03;99820.63;;;23.28;81.32
60583;BME280;46415;47.536;19.066;2022-08-21T08:39:09;99822.03;;;23.56;79.70
60583;BME280;46415;47.536;19.066;2022-08-21T08:42:15;99814.47;;;23.77;78.91
60583;BME280;46415;47.536;19.066;2022-08-21T08:45:37;99813.47;;;23.94;77.64
60583;BME280;46415;47.536;19.066;2022-08-21T08:48:53;99818.25;;;23.75;78.95
60583;BME280;46415;47.536;19.066;2022-08-21T08:52:03;99820.75;;;24.00;79.18
60583;BME280;46415;47.536;19.066;2022-08-21T08:55:21;99817.63;;;23.89;78.91
60583;BME280;46415;47.536;19.066;2022-08-21T08:58:30;99824.22;;;24.09;76.75
60583;BME280;46415;47.536;19.066;2022-08-21T09:01:33;99825.03;;;23.69;78.56
60583;BME280;46415;47.536;19.066;2022-08-21T09:04:40;99820.41;;;23.63;79.23
60583;BME280;46415;47.536;19.066;2022-08-21T09:08:02;99824.38;;;23.59;80.30
60583;BME280;46415;47.536;19.066;2022-08-21T09:11:16;99821.56;;;23.93;78.09
60583;BME280;46415;47.536;19.066;2022-08-21T09:24:31;99822.03;;;24.37;76.24
60583;BME280;46415;47.536;19.066;2022-08-21T09:27:35;99828.72;;;24.88;74.46
60583;BME280;46415;47.536;19.066;2022-08-21T09:30:39;99823.91;;;24.92;74.49
60583;BME280;46415;47.536;19.066;2022-08-21T09:33:42;99817.13;;;24.81;74.32
60583;BME280;46415;47.536;19.066;2022-08-21T09:36:47;99815.63;;;24.95;73.68
60583;BME280;46415;47.536;19.066;2022-08-21T09:39:51;99815.44;;;25.27;72.63
60583;BME280;46415;47.536;19.066;2022-08-21T09:42:57;99813.75;;;25.34;72.16
60583;BME280;46415;47.536;19.066;2022-08-21T09:46:23;99814.62;;;25.57;71.09
60583;BME280;46415;47.536;19.066;2022-08-21T09:49:28;99818.75;;;25.83;69.10
60583;BME280;46415;47.536;19.066;2022-08-21T09:52:31;99815.25;;;26.05;69.16
60583;BME280;46415;47.536;19.066;2022-08-21T09:55:38;99809.94;;;25.82;68.92
60583;BME280;46415;47.536;19.066;2022-08-21T09:59:00;99813.62;;;25.50;71.00
60583;BME280;46415;47.536;19.066;2022-08-21T10:02:29;99813.38;;;25.91;69.91
60583;BME280;46415;47.536;19.066;2022-08-21T10:05:34;99816.69;;;26.30;67.73
60583;BME280;46415;47.536;19.066;2022-08-21T10:08:39;99817.28;;;26.18;67.58
60583;BME280;46415;47.536;19.066;2022-08-21T10:11:56;99815.53;;;26.33;67.51
60583;BME280;46415;47.536;19.066;2022-08-21T10:15:09;99814.31;;;26.35;68.27
60583;BME280;46415;47.536;19.066;2022-08-21T10:28:06;99812.41;;;26.59;66.55
60583;BME280;46415;47.536;19.066;2022-08-21T10:31:28;99814.91;;;26.23;67.17
60583;BME280;46415;47.536;19.066;2022-08-21T10:38:05;99809.91;;;27.01;65.84
60583;BME280;46415;47.536;19.066;2022-08-21T10:41:28;99806.09;;;26.89;62.84
60583;BME280;46415;47.536;19.066;2022-08-21T10:47:48;99813.53;;;27.30;64.07
60583;BME280;46415;47.536;19.066;2022-08-21T10:51:04;99816.16;;;27.08;64.02
60583;BME280;46415;47.536;19.066;2022-08-21T11:01:04;99804.69;;;26.34;66.54
60583;BME280;46415;47.536;19.066;2022-08-21T11:04:48;99811.09;;;26.40;66.22
60583;BME280;46415;47.536;19.066;2022-08-21T11:11:05;99805.88;;;26.32;66.91
60583;BME280;46415;47.536;19.066;2022-08-21T11:17:51;99797.06;;;26.46;65.00
60583;BME280;46415;47.536;19.066;2022-08-21T11:25:03;99796.72;;;26.12;67.21
60583;BME280;46415;47.536;19.066;2022-08-21T11:28:15;99796.38;;;26.15;67.73
60583;BME280;46415;47.536;19.066;2022-08-21T11:34:57;99794.47;;;26.23;66.04
60583;BME280;46415;47.536;19.066;2022-08-21T11:38:13;99786.44;;;26.61;66.96
60583;BME280;46415;47.536;19.066;2022-08-21T11:45:24;99786.06;;;26.64;65.59
60583;BME280;46415;47.536;19.066;2022-08-21T11:48:52;99782.03;;;26.38;65.98
60583;BME280;46415;47.536;19.066;2022-08-21T11:52:22;99787.72;;;26.35;66.28
60583;BME280;46415;47.536;19.066;2022-08-21T11:59:05;99774.16;;;26.08;68.07
60583;BME280;46415;47.536;19.066;2022-08-21T12:02:18;99769.72;;;26.37;65.87
60583;BME280;46415;47.536;19.066;2022-08-21T12:05:44;99777.53;;;26.39;66.74
60583;BME280;46415;47.536;19.066;2022-08-21T12:09:00;99772.37;;;26.52;66.11
60583;BME280;46415;47.536;19.066;2022-08-21T12:12:10;99768.59;;;26.76;65.92
60583;BME280;46415;47.536;19.066;2022-08-21T12:18:29;99759.72;;;26.54;65.95
60583;BME280;46415;47.536;19.066;2022-08-21T12:21:33;99763.22;;;26.55;65.82
60583;BME280;46415;47.536;19.066;2022-08-21T12:24:40;99760.00;;;26.45;66.58
60583;BME280;46415;47.536;19.066;2022-08-21T12:27:50;99762.19;;;26.41;67.49
60583;BME280;46415;47.536;19.066;2022-08-21T12:30:54;99760.38;;;26.04;67.97
60583;BME280;46415;47.536;19.066;2022-08-21T12:34:01;99756.50;;;25.54;71.83
60583;BME280;46415;47.536;19.066;2022-08-21T12:37:15;99746.19;;;25.51;72.78
60583;BME280;46415;47.536;19.066;2022-08-21T12:40:40;99753.59;;;25.64;73.69
60583;BME280;46415;47.536;19.066;2022-08-21T12:43:51;99748.84;;;25.59;73.17
60583;BME280;46415;47.536;19.066;2022-08-21T12:47:02;99743.38;;;25.76;74.50
60583;BME280;46415;47.536;19.066;2022-08-21T12:56:29;99740.00;;;25.82;69.80
60583;BME280;46415;47.536;19.066;2022-08-21T12:59:37;99738.53;;;25.56;71.78
60583;BME280;46415;47.536;19.066;2022-08-21T13:02:47;99738.72;;;25.32;71.56
60583;BME280;46415;47.536;19.066;2022-08-21T13:05:51;99727.78;;;25.27;71.56
60583;BME280;46415;47.536;19.066;2022-08-21T13:08:58;99725.06;;;25.12;71.99
60583;BME280;46415;47.536;19.066;2022-08-21T13:12:08;99727.84;;;24.96;73.07
60583;BME280;46415;47.536;19.066;2022-08-21T13:15:11;99720.16;;;24.62;74.94
60583;BME280;46415;47.536;19.066;2022-08-21T13:18:21;99723.19;;;24.59;75.42
60583;BME280;46415;47.536;19.066;2022-08-21T13:21:31;99719.25;;;24.47;76.81
60583;BME280;46415;47.536;19.066;2022-08-21T13:24:36;99719.97;;;24.17;77.36
60583;BME280;46415;47.536;19.066;2022-08-21T13:27:58;99721.13;;;23.09;92.15
60583;BME280;46415;47.536;19.066;2022-08-21T13:31:09;99732.19;;;21.77;100.00
60583;BME280;46415;47.536;19.066;2022-08-21T13:34:17;99734.69;;;21.07;100.00
60583;BME280;46415;47.536;19.066;2022-08-21T13:37:21;99731.06;;;20.63;100.00
60583;BME280;46415;47.536;19.066;2022-08-21T13:40:29;99736.25;;;20.55;100.00
60583;BME280;46415;47.536;19.066;2022-08-21T13:43:35;99730.34;;;20.44;100.00
60583;BME280;46415;47.536;19.066;2022-08-21T13:46:38;99736.53;;;20.52;100.00
60583;BME280;46415;47.536;19.066;2022-08-21T13:49:44;99729.84;;;20.85;100.00
60583;BME280;46415;47.536;19.066;2022-08-21T13:53:03;99731.41;;;21.23;100.00
60583;BME280;46415;47.536;19.066;2022-08-21T13:56:06;99724.91;;;21.35;100.00
60583;BME280;46415;47.536;19.066;2022-08-21T13:59:09;99729.31;;;21.44;100.00
60583;BME280;46415;47.536;19.066;2022-08-21T14:02:16;99725.16;;;21.42;100.00
60583;BME280;46415;47.536;19.066;2022-08-21T14:05:24;99728.38;;;21.53;100.00
60583;BME280;46415;47.536;19.066;2022-08-21T14:08:37;99721.75;;;21.49;100.00
60583;BME280;46415;47.536;19.066;2022-08-21T14:11:42;99725.53;;;21.47;100.00
60583;BME280;46415;47.536;19.066;2022-08-21T14:14:45;99728.00;;;21.48;100.00
60583;BME280;46415;47.536;19.066;2022-08-21T14:17:48;99721.75;;;21.49;100.00
60583;BME280;46415;47.536;19.066;2022-08-21T14:20:51;99722.94;;;21.55;100.00
60583;BME280;46415;47.536;19.066;2022-08-21T14:27:07;99725.56;;;21.73;100.00
60583;BME280;46415;47.536;19.066;2022-08-21T14:30:19;99722.81;;;21.82;100.00
60583;BME280;46415;47.536;19.066;2022-08-21T14:33:28;99727.00;;;21.93;100.00
60583;BME280;46415;47.536;19.066;2022-08-21T14:36:31;99719.87;;;21.85;100.00
60583;BME280;46415;47.536;19.066;2022-08-21T14:39:34;99722.31;;;21.96;100.00
60583;BME280;46415;47.536;19.066;2022-08-21T14:42:37;99723.12;;;21.97;100.00
60583;BME280;46415;47.536;19.066;2022-08-21T14:45:40;99729.47;;;22.04;100.00
60583;BME280;46415;47.536;19.066;2022-08-21T14:48:43;99732.41;;;22.01;99.59
60583;BME280;46415;47.536;19.066;2022-08-21T14:51:46;99732.75;;;22.06;100.00
60583;BME280;46415;47.536;19.066;2022-08-21T14:54:56;99723.34;;;22.04;99.96
60583;BME280;46415;47.536;19.066;2022-08-21T14:58:00;99726.50;;;22.07;100.00
60583;BME280;46415;47.536;19.066;2022-08-21T15:01:04;99722.19;;;22.06;100.00
60583;BME280;46415;47.536;19.066;2022-08-21T15:04:08;99721.59;;;21.94;100.00
60583;BME280;46415;47.536;19.066;2022-08-21T15:07:10;99725.34;;;21.66;100.00
60583;BME280;46415;47.536;19.066;2022-08-21T15:10:13;99723.94;;;21.36;100.00
60583;BME280;46415;47.536;19.066;2022-08-21T15:13:16;99719.69;;;21.08;100.00
60583;BME280;46415;47.536;19.066;2022-08-21T15:16:19;99715.69;;;21.04;100.00
60583;BME280;46415;47.536;19.066;2022-08-21T15:19:22;99710.63;;;20.93;100.00
60583;BME280;46415;47.536;19.066;2022-08-21T15:22:25;99720.78;;;20.88;100.00
60583;BME280;46415;47.536;19.066;2022-08-21T15:25:29;99719.13;;;20.87;100.00
60583;BME280;46415;47.536;19.066;2022-08-21T15:28:33;99725.47;;;20.94;100.00
60583;BME280;46415;47.536;19.066;2022-08-21T15:31:50;99716.97;;;21.00;100.00
60583;BME280;46415;47.536;19.066;2022-08-21T15:34:54;99723.91;;;21.01;100.00
60583;BME280;46415;47.536;19.066;2022-08-21T15:37:57;99728.59;;;21.07;100.00
60583;BME280;46415;47.536;19.066;2022-08-21T15:41:02;99714.09;;;21.11;100.00
60583;BME280;46415;47.536;19.066;2022-08-21T15:44:09;99721.59;;;21.15;100.00
60583;BME280;46415;47.536;19.066;2022-08-21T15:47:21;99715.06;;;21.10;100.00
60583;BME280;46415;47.536;19.066;2022-08-21T15:50:25;99713.88;;;21.04;100.00
60583;BME280;46415;47.536;19.066;2022-08-21T15:53:28;99704.97;;;21.05;100.00
60583;BME280;46415;47.536;19.066;2022-08-21T15:56:37;99722.38;;;20.98;100.00
60583;BME280;46415;47.536;19.066;2022-08-21T15:59:45;99724.31;;;20.78;100.00
60583;BME280;46415;47.536;19.066;2022-08-21T16:02:55;99728.94;;;20.49;100.00
60583;BME280;46415;47.536;19.066;2022-08-21T16:05:58;99726.44;;;20.38;100.00
60583;BME280;46415;47.536;19.066;2022-08-21T16:09:01;99731.19;;;20.34;100.00
60583;BME280;46415;47.536;19.066;2022-08-21T16:12:05;99736.09;;;20.20;100.00
60583;BME280;46415;47.536;19.066;2022-08-21T16:15:11;99733.31;;;20.12;100.00
60583;BME280;46415;47.536;19.066;2022-08-21T16:18:22;99733.75;;;19.97;100.00
60583;BME280;46415;47.536;19.066;2022-08-21T16:21:25;99730.72;;;19.92;100.00
60583;BME280;46415;47.536;19.066;2022-08-21T16:24:28;99726.91;;;19.77;100.00
60583;BME280;46415;47.536;19.066;2022-08-21T16:27:31;99737.81;;;19.73;100.00
60583;BME280;46415;47.536;19.066;2022-08-21T16:30:36;99738.81;;;19.62;100.00
60583;BME280;46415;47.536;19.066;2022-08-21T16:33:42;99737.84;;;19.63;100.00
60583;BME280;46415;47.536;19.066;2022-08-21T16:36:46;99737.97;;;19.62;100.00
60583;BME280;46415;47.536;19.066;2022-08-21T16:39:49;99734.94;;;19.56;100.00
60583;BME280;46415;47.536;19.066;2022-08-21T16:42:55;99731.75;;;19.53;100.00
60583;BME280;46415;47.536;19.066;2022-08-21T16:45:58;99734.00;;;19.48;100.00
60583;BME280;46415;47.536;19.066;2022-08-21T16:49:02;99735.63;;;19.49;100.00
60583;BME280;46415;47.536;19.066;2022-08-21T16:52:05;99732.72;;;19.42;100.00
60583;BME280;46415;47.536;19.066;2022-08-21T16:55:08;99734.91;;;19.37;100.00
60583;BME280;46415;47.536;19.066;2022-08-21T16:58:25;99737.97;;;19.33;100.00
60583;BME280;46415;47.536;19.066;2022-08-21T17:01:30;99733.66;;;19.32;100.00
60583;BME280;46415;47.536;19.066;2022-08-21T17:04:34;99732.00;;;19.31;100.00
60583;BME280;46415;47.536;19.066;2022-08-21T17:07:37;99729.22;;;19.23;100.00
60583;BME280;46415;47.536;19.066;2022-08-21T17:10:46;99728.94;;;19.16;100.00
60583;BME280;46415;47.536;19.066;2022-08-21T17:13:49;99727.16;;;19.16;100.00
60583;BME280;46415;47.536;19.066;2022-08-21T17:16:53;99725.50;;;19.15;100.00